createdAt,value
2019-02-08T00:02:25.507Z,76.25
2019-02-08T00:04:56.110Z,78.30
2019-02-08T00:07:26.466Z,77.42
2019-02-08T00:09:56.797Z,75.00
2019-02-08T00:12:27.901Z,74.80
2019-02-08T00:14:58.253Z,74.82
2019-02-08T00:17:28.502Z,76.57
2019-02-08T00:19:58.961Z,72.22
2019-02-08T00:22:29.292Z,71.12
2019-02-08T00:24:59.627Z,71.53
2019-02-08T00:27:29.905Z,71.50
2019-02-08T00:30:00.392Z,71.72
2019-02-08T00:32:30.867Z,69.58
2019-02-08T00:35:01.089Z,69.45
2019-02-08T00:37:31.493Z,69.50
2019-02-08T00:40:02.373Z,68.33
2019-02-08T00:42:32.691Z,67.62
2019-02-08T00:45:02.991Z,68.28
2019-02-08T00:47:34.500Z,68.28
2019-02-08T00:50:05.977Z,65.67
2019-02-08T00:52:36.187Z,66.92
2019-02-08T00:55:07.054Z,65.03
2019-02-08T00:57:37.349Z,63.92
2019-02-08T01:00:10.420Z,63.17
2019-02-08T01:02:40.985Z,62.80
2019-02-08T01:05:13.278Z,63.75
2019-02-08T01:07:43.549Z,61.83
2019-02-08T01:10:41.986Z,60.90
2019-02-08T01:13:12.683Z,62.08
2019-02-08T01:15:43.165Z,61.80
2019-02-08T01:18:14.427Z,59.65
2019-02-08T01:20:45.996Z,59.98
2019-02-08T01:23:17.543Z,59.85
2019-02-08T01:25:47.847Z,59.30
2019-02-08T01:28:18.105Z,58.33
2019-02-08T01:30:48.558Z,59.25
2019-02-08T01:33:19.914Z,56.98
2019-02-08T01:35:50.159Z,55.80
2019-02-08T01:38:20.425Z,58.25
2019-02-08T01:40:52.430Z,56.28
2019-02-08T01:43:22.704Z,55.73
2019-02-08T01:45:53.053Z,55.23
2019-02-08T01:48:23.316Z,55.08
2019-02-08T01:50:53.663Z,54.55
2019-02-08T01:53:24.431Z,51.88
2019-02-08T01:55:54.790Z,54.13
2019-02-08T01:58:25.024Z,53.13
2019-02-08T02:00:57.974Z,53.50
2019-02-08T02:03:29.926Z,51.85
2019-02-08T02:06:00.680Z,52.33
2019-02-08T02:08:31.006Z,49.95
2019-02-08T02:11:01.232Z,50.95
2019-02-08T02:13:31.547Z,52.45
2019-02-08T02:16:04.137Z,49.48
2019-02-08T02:18:34.651Z,50.23
2019-02-08T02:21:06.640Z,49.60
2019-02-08T02:23:36.899Z,49.30
2019-02-08T02:26:07.175Z,47.03
2019-02-08T02:28:37.559Z,47.65
2019-02-08T02:31:07.827Z,48.13
2019-02-08T02:33:38.180Z,44.67
2019-02-08T02:36:08.480Z,46.00
2019-02-08T02:38:38.882Z,45.48
2019-02-08T02:41:09.281Z,45.50
2019-02-08T02:43:39.681Z,46.55
2019-02-08T02:46:09.950Z,46.68
2019-02-08T02:48:40.300Z,44.10
2019-02-08T02:51:10.568Z,45.40
2019-02-08T02:53:40.907Z,44.05
2019-02-08T02:56:11.236Z,43.68
2019-02-08T02:58:41.742Z,43.87
2019-02-08T03:01:11.995Z,42.60
2019-02-08T03:03:42.511Z,42.53
2019-02-08T03:06:12.769Z,42.33
2019-02-08T03:08:43.058Z,42.53
2019-02-08T03:11:13.305Z,41.68
2019-02-08T03:13:43.594Z,41.40
2019-02-08T03:16:13.893Z,41.35
2019-02-08T03:18:44.245Z,40.05
2019-02-08T03:21:18.154Z,41.13
2019-02-08T03:23:48.556Z,41.48
2019-02-08T03:26:18.937Z,39.55
2019-02-08T03:28:49.360Z,38.73
2019-02-08T03:31:23.742Z,39.65
2019-02-08T03:33:54.129Z,38.63
2019-02-08T03:36:24.351Z,38.67
2019-02-08T03:38:54.643Z,37.90
2019-02-08T03:41:27.767Z,37.85
2019-02-08T03:43:58.054Z,37.03
2019-02-08T03:46:28.523Z,36.50
2019-02-08T03:48:58.820Z,37.67
2019-02-08T03:51:29.135Z,36.60
2019-02-08T03:53:59.376Z,35.17
2019-02-08T03:56:29.958Z,36.70
2019-02-08T03:59:00.301Z,34.88
2019-02-08T04:01:30.730Z,35.25
2019-02-08T04:04:15.720Z,34.00
2019-02-08T04:06:46.021Z,33.83
2019-02-08T04:09:16.396Z,32.42
2019-02-08T04:11:46.743Z,33.73
2019-02-08T04:14:17.011Z,33.00
2019-02-08T04:16:47.254Z,33.48
2019-02-08T04:19:17.585Z,33.70
2019-02-08T04:21:47.885Z,31.70
2019-02-08T04:24:18.325Z,32.20
2019-02-08T04:26:48.623Z,32.65
2019-02-08T04:29:18.908Z,32.13
2019-02-08T04:31:49.196Z,32.25
2019-02-08T04:34:19.537Z,30.43
2019-02-08T04:36:49.894Z,31.95
2019-02-08T04:39:20.131Z,30.30
2019-02-08T04:41:50.439Z,31.20
2019-02-08T04:44:20.745Z,30.32
2019-02-08T04:46:51.034Z,29.75
2019-02-08T04:49:21.345Z,30.43
2019-02-08T04:51:51.650Z,29.52
2019-02-08T04:54:21.938Z,29.92
2019-02-08T04:56:52.324Z,29.92
2019-02-08T04:59:22.565Z,29.37
2019-02-08T05:01:52.866Z,28.00
2019-02-08T05:04:24.745Z,28.92
2019-02-08T05:06:55.087Z,28.35
2019-02-08T05:09:25.414Z,27.40
2019-02-08T05:11:55.793Z,27.67
2019-02-08T05:14:26.048Z,26.93
2019-02-08T05:16:56.368Z,26.97
2019-02-08T05:19:29.530Z,26.73
2019-02-08T05:21:59.910Z,26.02
2019-02-08T05:24:30.204Z,26.57
2019-02-08T05:27:00.504Z,25.95
2019-02-08T05:29:30.764Z,26.35
2019-02-08T05:32:04.778Z,25.23
2019-02-08T05:34:35.048Z,25.97
2019-02-08T05:37:05.698Z,28.10
2019-02-08T05:39:37.448Z,26.40
2019-02-08T05:42:07.851Z,25.08
2019-02-08T05:44:38.449Z,24.63
2019-02-08T05:47:08.853Z,25.08
2019-02-08T05:49:39.320Z,25.00
2019-02-08T05:52:09.625Z,24.80
2019-02-08T05:54:39.978Z,24.15
2019-02-08T05:57:10.570Z,27.35
2019-02-08T05:59:40.813Z,24.10
2019-02-08T06:02:11.173Z,25.12
2019-02-08T06:04:40.392Z,25.60
2019-02-08T06:07:09.771Z,25.95
2019-02-08T06:09:40.106Z,24.98
2019-02-08T06:12:10.407Z,25.57
2019-02-08T06:14:40.736Z,25.15
2019-02-08T06:17:11.118Z,27.55
2019-02-08T06:19:41.409Z,36.20
2019-02-08T06:22:11.677Z,34.65
2019-02-08T06:24:41.922Z,33.20
2019-02-08T06:27:12.262Z,43.52
2019-02-08T06:29:42.608Z,41.30
2019-02-08T06:32:12.947Z,38.92
2019-02-08T06:34:43.211Z,39.42
2019-02-08T06:37:13.500Z,51.08
2019-02-08T06:39:43.846Z,50.38
2019-02-08T06:42:14.166Z,80.65
2019-02-08T06:44:45.511Z,66.30
2019-02-08T06:47:15.767Z,69.53
2019-02-08T06:49:46.150Z,72.92
2019-02-08T06:52:16.471Z,76.97
2019-02-08T06:54:46.694Z,68.87
2019-02-08T06:57:39.031Z,67.27
2019-02-08T07:00:37.654Z,66.45
2019-02-08T07:03:32.846Z,65.22
2019-02-08T07:06:10.433Z,65.65
2019-02-08T07:09:05.897Z,61.40
2019-02-08T07:12:01.129Z,61.63
2019-02-08T07:14:50.342Z,62.75
2019-02-08T07:17:39.660Z,61.08
2019-02-08T07:20:29.848Z,64.30
2019-02-08T07:23:10.744Z,84.75
2019-02-08T07:26:15.103Z,49.25
2019-02-08T07:29:07.507Z,52.23
2019-02-08T07:32:02.648Z,49.45
2019-02-08T07:35:04.600Z,52.20
2019-02-08T07:38:00.292Z,55.05
2019-02-08T07:40:51.300Z,56.68
2019-02-08T07:43:47.729Z,57.53
2019-02-08T07:46:28.474Z,55.38
2019-02-08T07:49:12.712Z,61.28
2019-02-08T07:52:20.130Z,56.73
2019-02-08T07:55:05.868Z,57.83
2019-02-08T07:57:53.648Z,56.60
2019-02-08T08:00:41.419Z,58.55
2019-02-08T08:03:27.455Z,55.88
2019-02-08T08:06:21.096Z,57.90
2019-02-08T08:09:09.419Z,56.63
2019-02-08T08:11:57.385Z,54.33
2019-02-08T08:14:55.593Z,57.33
2019-02-08T08:17:54.091Z,53.58
2019-02-08T08:20:50.154Z,55.48
2019-02-08T08:23:45.032Z,55.67
2019-02-08T08:26:49.680Z,53.95
2019-02-08T08:29:42.535Z,53.05
2019-02-08T08:32:36.220Z,53.68
2019-02-08T08:35:57.439Z,51.68
2019-02-08T08:39:27.532Z,53.75
2019-02-08T08:42:28.610Z,52.93
2019-02-08T08:45:35.778Z,52.90
2019-02-08T08:48:45.400Z,51.60
2019-02-08T08:51:52.550Z,50.05
2019-02-08T08:55:08.888Z,51.53
2019-02-08T08:58:15.025Z,51.05
2019-02-08T09:01:41.310Z,50.75
2019-02-08T09:05:08.211Z,49.88
2019-02-08T09:08:19.802Z,51.20
2019-02-08T09:11:33.957Z,49.75
2019-02-08T09:14:44.277Z,49.08
2019-02-08T09:18:10.987Z,49.08
2019-02-08T09:21:18.423Z,45.45
2019-02-08T09:24:45.250Z,48.48
2019-02-08T09:27:48.955Z,46.33
2019-02-08T09:31:05.646Z,46.30
2019-02-08T09:34:22.299Z,42.23
2019-02-08T09:37:48.421Z,41.37
2019-02-08T09:40:49.040Z,40.43
2019-02-08T09:43:56.122Z,42.27
2019-02-08T09:47:11.934Z,41.85
2019-02-08T09:50:20.625Z,41.55
2019-02-08T09:53:05.807Z,38.35
2019-02-08T09:56:22.366Z,40.05
2019-02-08T09:59:23.257Z,38.73
2019-02-08T10:02:42.971Z,38.00
2019-02-08T10:05:37.312Z,37.38
2019-02-08T10:08:51.846Z,35.85
2019-02-08T10:11:59.116Z,34.92
2019-02-08T10:15:28.526Z,32.88
2019-02-08T10:18:30.866Z,34.20
2019-02-08T10:21:29.972Z,33.78
2019-02-08T10:24:40.494Z,32.03
2019-02-08T10:27:54.483Z,31.45
2019-02-08T10:31:11.007Z,29.55
2019-02-08T10:34:16.578Z,29.72
2019-02-08T10:37:39.665Z,29.77
2019-02-08T10:41:03.326Z,26.97
2019-02-08T10:44:30.542Z,27.13
2019-02-08T10:47:59.911Z,26.68
2019-02-08T10:51:06.336Z,25.75
2019-02-08T10:54:18.175Z,25.30
2019-02-08T10:57:35.802Z,24.12
2019-02-08T11:01:01.733Z,23.47
2019-02-08T11:04:31.791Z,24.18
2019-02-08T11:07:43.958Z,22.13
2019-02-08T11:11:10.781Z,22.07
2019-02-08T11:14:21.242Z,21.93
2019-02-08T11:17:29.999Z,21.42
2019-02-08T11:20:00.664Z,22.15
2019-02-08T11:22:31.154Z,20.68
2019-02-08T11:25:01.634Z,20.17
2019-02-08T11:27:32.623Z,20.97
2019-02-08T11:30:03.236Z,19.90
2019-02-08T11:32:43.402Z,19.98
2019-02-08T11:35:07.682Z,19.32
2019-02-08T11:37:38.756Z,19.27
2019-02-08T11:40:17.183Z,18.65
2019-02-08T11:42:47.726Z,18.73
2019-02-08T11:45:19.339Z,18.65
2019-02-08T11:47:49.801Z,18.45
2019-02-08T11:50:21.442Z,19.40
2019-02-08T11:52:51.954Z,17.30
2019-02-08T11:55:22.509Z,17.48
2019-02-08T11:57:53.256Z,17.25
2019-02-08T12:00:32.969Z,16.82
2019-02-08T12:03:04.709Z,17.00
2019-02-08T12:05:35.391Z,17.12
2019-02-08T12:08:06.042Z,15.88
2019-02-08T12:10:36.584Z,16.25
2019-02-08T12:13:07.391Z,15.50
2019-02-08T12:15:38.273Z,16.20
2019-02-08T12:18:09.343Z,15.75
2019-02-08T12:20:40.173Z,16.77
2019-02-08T12:23:11.209Z,14.50
2019-02-08T12:25:41.906Z,15.35
2019-02-08T12:28:12.646Z,15.08
2019-02-08T12:30:43.619Z,14.95
2019-02-08T12:33:14.153Z,13.40
2019-02-08T12:35:44.625Z,14.53
2019-02-08T12:38:18.672Z,13.80
2019-02-08T12:40:49.218Z,14.15
2019-02-08T12:43:19.869Z,13.45
2019-02-08T12:45:53.158Z,14.47
2019-02-08T12:48:24.207Z,14.07
2019-02-08T12:50:55.644Z,13.68
2019-02-08T12:53:26.322Z,12.95
2019-02-08T12:55:57.399Z,13.48
2019-02-08T12:58:28.100Z,13.48
2019-02-08T13:00:58.688Z,13.35
2019-02-08T13:03:30.479Z,13.53
2019-02-08T13:06:02.573Z,12.13
2019-02-08T13:08:33.133Z,12.85
2019-02-08T13:11:03.992Z,12.23
2019-02-08T13:13:34.534Z,12.50
2019-02-08T13:16:06.903Z,11.83
2019-02-08T13:18:38.116Z,11.35
2019-02-08T13:21:08.927Z,13.28
2019-02-08T13:23:43.315Z,11.15
2019-02-08T13:26:14.066Z,11.60
2019-02-08T13:28:44.511Z,11.30
2019-02-08T13:31:15.024Z,12.20
2019-02-08T13:33:45.402Z,12.00
2019-02-08T13:36:16.462Z,11.00
2019-02-08T13:38:49.420Z,11.83
2019-02-08T13:41:19.923Z,11.05
2019-02-08T13:43:53.350Z,10.93
2019-02-08T13:46:23.986Z,11.73
2019-02-08T13:48:54.418Z,10.53
2019-02-08T13:51:24.962Z,11.53
2019-02-08T13:53:55.555Z,11.20
2019-02-08T13:56:26.289Z,11.73
2019-02-08T13:58:56.821Z,11.15
2019-02-08T14:01:27.749Z,10.98
2019-02-08T14:03:58.787Z,10.20
2019-02-08T14:06:30.749Z,10.45
2019-02-08T14:09:01.111Z,9.78
2019-02-08T14:11:33.572Z,11.05
2019-02-08T14:14:04.259Z,10.30
2019-02-08T14:16:34.960Z,9.98
2019-02-08T14:19:05.406Z,10.80
2019-02-08T14:21:36.201Z,10.38
2019-02-08T14:24:06.732Z,10.53
2019-02-08T14:26:38.879Z,10.08
2019-02-08T14:29:09.805Z,9.80
2019-02-08T14:31:40.256Z,10.43
2019-02-08T14:34:15.137Z,10.18
2019-02-08T14:36:45.568Z,10.60
2019-02-08T14:39:15.918Z,9.63
2019-02-08T14:41:47.664Z,9.30
2019-02-08T14:44:18.027Z,9.20
2019-02-08T14:46:48.405Z,9.08
2019-02-08T14:49:19.454Z,9.03
2019-02-08T14:51:49.741Z,8.95
2019-02-08T14:54:20.430Z,9.15
2019-02-08T14:56:50.897Z,8.25
2019-02-08T14:59:24.370Z,9.45
2019-02-08T15:02:01.454Z,9.33
2019-02-08T15:04:32.720Z,9.25
2019-02-08T15:07:03.796Z,9.43
2019-02-08T15:09:34.269Z,8.13
2019-02-08T15:12:04.843Z,9.05
2019-02-08T15:14:36.211Z,8.45
2019-02-08T15:17:12.047Z,8.75
2019-02-08T15:19:42.379Z,8.95
2019-02-08T15:22:12.778Z,7.60
2019-02-08T15:24:43.095Z,9.48
2019-02-08T15:27:13.620Z,9.63
2019-02-08T15:29:43.839Z,9.13
2019-02-08T15:32:14.352Z,9.13
2019-02-08T15:34:46.747Z,8.65
2019-02-08T15:37:18.813Z,9.33
2019-02-08T15:39:49.096Z,7.58
2019-02-08T15:42:19.544Z,8.55
2019-02-08T15:44:50.240Z,8.15
2019-02-08T15:47:20.668Z,11.53
2019-02-08T15:49:51.260Z,8.30
2019-02-08T15:52:21.532Z,8.93
2019-02-08T15:54:51.877Z,8.28
2019-02-08T15:57:22.175Z,8.75
2019-02-08T15:59:52.603Z,8.53
2019-02-08T16:02:24.549Z,8.08
2019-02-08T16:04:54.997Z,8.43
2019-02-08T16:07:25.436Z,8.40
2019-02-08T16:09:55.964Z,8.50
2019-02-08T16:12:26.352Z,8.85
2019-02-08T16:14:56.670Z,8.10
2019-02-08T16:17:26.992Z,9.38
2019-02-08T16:19:57.456Z,10.58
2019-02-08T16:22:27.784Z,8.60
2019-02-08T16:24:58.091Z,9.45
2019-02-08T16:27:28.447Z,8.65
2019-02-08T16:29:59.873Z,9.45
2019-02-08T16:32:37.269Z,9.18
2019-02-08T16:35:08.607Z,9.18
2019-02-08T16:37:38.908Z,11.20
2019-02-08T16:40:11.850Z,9.65
2019-02-08T16:42:42.203Z,14.43
2019-02-08T16:45:15.912Z,13.75
2019-02-08T16:47:46.272Z,15.13
2019-02-08T16:50:20.432Z,11.20
2019-02-08T16:52:50.825Z,13.40
2019-02-08T16:55:21.556Z,12.40
2019-02-08T16:57:52.781Z,12.50
2019-02-08T17:00:30.731Z,14.43
2019-02-08T17:03:02.878Z,10.95
2019-02-08T17:05:33.919Z,10.82
2019-02-08T17:08:04.452Z,11.75
2019-02-08T17:10:35.151Z,12.13
2019-02-08T17:13:07.245Z,11.05
2019-02-08T17:15:37.652Z,11.85
2019-02-08T17:18:08.246Z,11.75
2019-02-08T17:20:40.588Z,10.70
2019-02-08T17:23:11.366Z,9.30
2019-02-08T17:25:43.030Z,10.80
2019-02-08T17:28:13.414Z,12.20
2019-02-08T17:30:43.713Z,9.73
2019-02-08T17:33:14.076Z,9.88
2019-02-08T17:35:44.527Z,11.70
2019-02-08T17:38:17.231Z,11.45
2019-02-08T17:40:47.944Z,9.63
2019-02-08T17:43:18.302Z,9.58
2019-02-08T17:45:48.624Z,11.60
2019-02-08T17:48:18.823Z,9.45
2019-02-08T17:50:49.171Z,9.65
2019-02-08T17:53:20.536Z,9.88
2019-02-08T17:55:50.897Z,9.38
2019-02-08T17:58:21.269Z,9.48
2019-02-08T18:00:56.715Z,9.70
2019-02-08T18:03:27.016Z,9.93
2019-02-08T18:05:57.405Z,10.65
2019-02-08T18:08:27.702Z,10.85
2019-02-08T18:10:58.267Z,10.03
2019-02-08T18:13:28.691Z,10.90
2019-02-08T18:15:59.027Z,10.55
2019-02-08T18:18:29.428Z,9.98
2019-02-08T18:21:02.678Z,11.25
2019-02-08T18:23:33.012Z,10.15
2019-02-08T18:26:03.354Z,10.93
2019-02-08T18:28:33.629Z,11.12
2019-02-08T18:31:04.022Z,10.28
2019-02-08T18:33:34.414Z,10.48
2019-02-08T18:36:04.867Z,10.70
2019-02-08T18:38:35.186Z,10.88
2019-02-08T18:41:05.558Z,10.05
2019-02-08T18:43:36.265Z,10.70
2019-02-08T18:46:06.585Z,9.20
2019-02-08T18:48:37.004Z,9.98
2019-02-08T18:51:07.421Z,10.15
2019-02-08T18:53:37.832Z,9.60
2019-02-08T18:56:08.056Z,9.63
2019-02-08T18:58:39.350Z,9.23
2019-02-08T19:01:09.593Z,10.78
2019-02-08T19:03:42.841Z,10.30
2019-02-08T19:06:13.193Z,10.15
2019-02-08T19:08:43.434Z,10.68
2019-02-08T19:11:13.700Z,10.18
2019-02-08T19:13:44.088Z,10.08
2019-02-08T19:16:15.479Z,10.10
2019-02-08T19:18:46.855Z,9.98
2019-02-08T19:21:17.300Z,10.32
2019-02-08T19:23:47.669Z,10.75
2019-02-08T19:26:17.967Z,10.75
2019-02-08T19:28:48.306Z,10.03
2019-02-08T19:31:18.720Z,10.45
2019-02-08T19:33:49.728Z,10.63
2019-02-08T19:36:20.052Z,11.50
2019-02-08T19:38:50.378Z,9.80
2019-02-08T19:41:20.626Z,9.68
2019-02-08T19:43:51.101Z,9.53
2019-02-08T19:46:21.477Z,10.15
2019-02-08T19:48:51.819Z,9.45
2019-02-08T19:51:22.107Z,9.63
2019-02-08T19:53:52.298Z,10.45
2019-02-08T19:56:22.655Z,9.45
2019-02-08T19:58:53.250Z,10.20
2019-02-08T20:01:23.520Z,9.68
2019-02-08T20:03:54.059Z,10.20
2019-02-08T20:06:24.287Z,9.28
2019-02-08T20:08:54.771Z,10.10
2019-02-08T20:11:25.089Z,8.68
2019-02-08T20:13:55.500Z,9.90
2019-02-08T20:16:25.887Z,9.53
2019-02-08T20:18:56.236Z,9.38
2019-02-08T20:21:26.608Z,9.38
2019-02-08T20:23:56.966Z,9.93
2019-02-08T20:26:28.562Z,11.28
2019-02-08T20:29:01.882Z,8.98
2019-02-08T20:31:33.904Z,10.45
2019-02-08T20:34:08.374Z,9.13
2019-02-08T20:36:38.678Z,9.58
2019-02-08T20:39:09.722Z,9.05
2019-02-08T20:41:40.091Z,9.25
2019-02-08T20:44:10.418Z,8.83
2019-02-08T20:46:40.729Z,9.35
2019-02-08T20:49:11.146Z,9.25
2019-02-08T20:51:41.375Z,9.60
2019-02-08T20:54:11.755Z,9.35
2019-02-08T20:56:42.034Z,9.35
2019-02-08T20:59:12.350Z,11.90
2019-02-08T21:01:42.932Z,9.28
2019-02-08T21:04:13.318Z,9.30
2019-02-08T21:06:43.603Z,9.03
2019-02-08T21:09:14.425Z,9.30
2019-02-08T21:11:44.795Z,9.38
2019-02-08T21:14:15.152Z,9.28
2019-02-08T21:16:45.642Z,10.30
2019-02-08T21:19:15.999Z,9.18
2019-02-08T21:21:46.317Z,10.63
2019-02-08T21:24:16.684Z,9.55
2019-02-08T21:26:48.063Z,9.88
2019-02-08T21:29:18.443Z,9.45
2019-02-08T21:31:49.642Z,9.40
2019-02-08T21:34:20.025Z,8.80
2019-02-08T21:36:50.244Z,8.70
2019-02-08T21:39:20.513Z,8.55
2019-02-08T21:41:50.843Z,10.00
2019-02-08T21:44:21.147Z,10.15
2019-02-08T21:46:51.443Z,10.78
2019-02-08T21:49:21.733Z,8.65
2019-02-08T21:51:53.061Z,9.65
2019-02-08T21:54:23.283Z,9.78
2019-02-08T21:56:53.598Z,9.40
2019-02-08T21:59:23.920Z,9.45
2019-02-08T22:01:54.208Z,10.72
2019-02-08T22:04:24.503Z,8.78
2019-02-08T22:06:54.815Z,9.50
2019-02-08T22:09:25.148Z,8.95
2019-02-08T22:11:55.386Z,9.80
2019-02-08T22:14:25.688Z,9.60
2019-02-08T22:16:56.132Z,9.75
2019-02-08T22:19:26.420Z,9.20
2019-02-08T22:21:56.767Z,10.35
2019-02-08T22:24:27.208Z,9.48
2019-02-08T22:26:57.505Z,10.28
2019-02-08T22:29:27.772Z,10.15
2019-02-08T22:31:58.112Z,9.33
2019-02-08T22:34:28.338Z,9.10
2019-02-08T22:36:58.667Z,9.20
2019-02-08T22:39:28.971Z,9.83
2019-02-08T22:41:59.347Z,9.28
2019-02-08T22:44:29.669Z,9.53
2019-02-08T22:47:00.098Z,10.05
2019-02-08T22:49:30.436Z,9.35
2019-02-08T22:52:00.682Z,9.75
2019-02-08T22:54:31.060Z,10.35
2019-02-08T22:57:01.453Z,9.65
2019-02-08T22:59:32.614Z,9.63
2019-02-08T23:02:02.988Z,10.28
2019-02-08T23:04:33.374Z,9.40
2019-02-08T23:07:04.210Z,9.05
2019-02-08T23:09:34.494Z,9.85
2019-02-08T23:12:06.271Z,9.60
2019-02-08T23:14:36.828Z,9.55
2019-02-08T23:17:07.147Z,9.63
2019-02-08T23:19:37.417Z,10.43
2019-02-08T23:22:07.701Z,9.40
2019-02-08T23:24:39.529Z,9.30
2019-02-08T23:27:10.938Z,8.90
2019-02-08T23:29:41.270Z,10.40
2019-02-08T23:32:11.598Z,10.18
2019-02-08T23:34:41.981Z,9.93
2019-02-08T23:37:12.292Z,10.03
2019-02-08T23:39:42.631Z,9.33
2019-02-08T23:42:14.794Z,10.10
2019-02-08T23:44:45.080Z,10.03
2019-02-08T23:47:15.319Z,9.93
2019-02-08T23:49:46.647Z,10.35
2019-02-08T23:52:17.120Z,9.63
2019-02-08T23:54:47.426Z,11.68
2019-02-08T23:57:17.790Z,10.50
2019-02-08T23:59:48.041Z,9.48
